sensor_id;sensor_type;location;lat;lon;timestamp;P1;durP1;ratioP1;P2;durP2;ratioP2
66421;SDS011;53228;51.380;0.098;2024-01-15T00:02:11;3.13;;;0.98;;
66421;SDS011;53228;51.380;0.098;2024-01-15T00:04:39;1.42;;;0.75;;
66421;SDS011;53228;51.380;0.098;2024-01-15T00:07:08;2.15;;;1.02;;
66421;SDS011;53228;51.380;0.098;2024-01-15T00:09:36;3.53;;;1.20;;
66421;SDS011;53228;51.380;0.098;2024-01-15T00:12:05;2.90;;;1.23;;
66421;SDS011;53228;51.380;0.098;2024-01-15T00:14:33;1.05;;;0.80;;
66421;SDS011;53228;51.380;0.098;2024-01-15T00:17:01;2.30;;;1.20;;
66421;SDS011;53228;51.380;0.098;2024-01-15T00:19:29;0.90;;;0.88;;
66421;SDS011;53228;51.380;0.098;2024-01-15T00:21:59;1.20;;;1.00;;
66421;SDS011;53228;51.380;0.098;2024-01-15T00:24:27;1.95;;;1.20;;
66421;SDS011;53228;51.380;0.098;2024-01-15T00:26:55;2.42;;;0.98;;
66421;SDS011;53228;51.380;0.098;2024-01-15T00:29:23;1.52;;;1.00;;
66421;SDS011;53228;51.380;0.098;2024-01-15T00:31:51;1.10;;;0.95;;
66421;SDS011;53228;51.380;0.098;2024-01-15T00:34:19;0.80;;;0.65;;
66421;SDS011;53228;51.380;0.098;2024-01-15T00:36:47;3.03;;;1.20;;
66421;SDS011;53228;51.380;0.098;2024-01-15T00:39:15;3.85;;;0.93;;
66421;SDS011;53228;51.380;0.098;2024-01-15T00:41:43;1.15;;;0.70;;
66421;SDS011;53228;51.380;0.098;2024-01-15T00:44:11;1.15;;;0.88;;
66421;SDS011;53228;51.380;0.098;2024-01-15T00:46:43;1.42;;;1.00;;
66421;SDS011;53228;51.380;0.098;2024-01-15T00:49:12;2.67;;;0.88;;
66421;SDS011;53228;51.380;0.098;2024-01-15T00:51:41;2.22;;;0.75;;
66421;SDS011;53228;51.380;0.098;2024-01-15T00:54:09;1.50;;;1.25;;
66421;SDS011;53228;51.380;0.098;2024-01-15T00:56:37;1.20;;;0.93;;
66421;SDS011;53228;51.380;0.098;2024-01-15T00:59:05;3.10;;;0.50;;
66421;SDS011;53228;51.380;0.098;2024-01-15T01:01:33;1.33;;;0.57;;
66421;SDS011;53228;51.380;0.098;2024-01-15T01:04:01;2.33;;;0.80;;
66421;SDS011;53228;51.380;0.098;2024-01-15T01:06:30;0.70;;;0.50;;
66421;SDS011;53228;51.380;0.098;2024-01-15T01:09:00;1.58;;;0.93;;
66421;SDS011;53228;51.380;0.098;2024-01-15T01:11:28;3.00;;;1.00;;
66421;SDS011;53228;51.380;0.098;2024-01-15T01:13:56;2.53;;;1.00;;
66421;SDS011;53228;51.380;0.098;2024-01-15T01:16:24;0.98;;;0.75;;
66421;SDS011;53228;51.380;0.098;2024-01-15T01:18:52;1.15;;;1.05;;
66421;SDS011;53228;51.380;0.098;2024-01-15T01:21:20;2.92;;;1.70;;
66421;SDS011;53228;51.380;0.098;2024-01-15T01:23:49;1.40;;;1.15;;
66421;SDS011;53228;51.380;0.098;2024-01-15T01:26:17;1.27;;;1.10;;
66421;SDS011;53228;51.380;0.098;2024-01-15T01:28:45;3.13;;;1.40;;
66421;SDS011;53228;51.380;0.098;2024-01-15T01:31:13;2.72;;;0.73;;
66421;SDS011;53228;51.380;0.098;2024-01-15T01:33:41;1.17;;;0.70;;
66421;SDS011;53228;51.380;0.098;2024-01-15T01:36:09;0.60;;;0.60;;
66421;SDS011;53228;51.380;0.098;2024-01-15T01:38:37;2.58;;;0.60;;
66421;SDS011;53228;51.380;0.098;2024-01-15T01:41:05;1.40;;;0.75;;
66421;SDS011;53228;51.380;0.098;2024-01-15T01:43:33;1.63;;;0.70;;
66421;SDS011;53228;51.380;0.098;2024-01-15T01:46:01;1.23;;;0.80;;
66421;SDS011;53228;51.380;0.098;2024-01-15T01:48:30;1.60;;;1.08;;
66421;SDS011;53228;51.380;0.098;2024-01-15T01:51:00;2.15;;;1.20;;
66421;SDS011;53228;51.380;0.098;2024-01-15T01:53:31;2.05;;;1.17;;
66421;SDS011;53228;51.380;0.098;2024-01-15T01:55:59;0.77;;;0.75;;
66421;SDS011;53228;51.380;0.098;2024-01-15T01:58:28;1.98;;;1.20;;
66421;SDS011;53228;51.380;0.098;2024-01-15T02:00:56;1.73;;;1.20;;
66421;SDS011;53228;51.380;0.098;2024-01-15T02:03:27;5.65;;;1.23;;
66421;SDS011;53228;51.380;0.098;2024-01-15T02:05:55;0.95;;;0.90;;
66421;SDS011;53228;51.380;0.098;2024-01-15T02:08:24;7.03;;;0.98;;
66421;SDS011;53228;51.380;0.098;2024-01-15T02:10:53;2.20;;;0.98;;
66421;SDS011;53228;51.380;0.098;2024-01-15T02:13:21;3.78;;;1.73;;
66421;SDS011;53228;51.380;0.098;2024-01-15T02:15:49;0.98;;;0.88;;
66421;SDS011;53228;51.380;0.098;2024-01-15T02:18:17;1.65;;;1.30;;
66421;SDS011;53228;51.380;0.098;2024-01-15T02:20:45;1.60;;;1.02;;
66421;SDS011;53228;51.380;0.098;2024-01-15T02:23:13;1.30;;;0.90;;
66421;SDS011;53228;51.380;0.098;2024-01-15T02:25:43;3.17;;;1.13;;
66421;SDS011;53228;51.380;0.098;2024-01-15T02:28:12;6.30;;;0.75;;
66421;SDS011;53228;51.380;0.098;2024-01-15T02:30:41;2.88;;;1.20;;
66421;SDS011;53228;51.380;0.098;2024-01-15T02:33:10;1.42;;;1.20;;
66421;SDS011;53228;51.380;0.098;2024-01-15T02:35:38;0.85;;;0.65;;
66421;SDS011;53228;51.380;0.098;2024-01-15T02:38:06;3.25;;;1.35;;
66421;SDS011;53228;51.380;0.098;2024-01-15T02:40:34;1.08;;;0.60;;
66421;SDS011;53228;51.380;0.098;2024-01-15T02:43:03;1.00;;;0.80;;
66421;SDS011;53228;51.380;0.098;2024-01-15T02:45:31;1.75;;;0.82;;
66421;SDS011;53228;51.380;0.098;2024-01-15T02:47:59;9.63;;;1.20;;
66421;SDS011;53228;51.380;0.098;2024-01-15T02:50:27;2.40;;;1.00;;
66421;SDS011;53228;51.380;0.098;2024-01-15T02:52:55;1.58;;;0.82;;
66421;SDS011;53228;51.380;0.098;2024-01-15T02:55:22;2.00;;;0.80;;
66421;SDS011;53228;51.380;0.098;2024-01-15T02:57:51;1.95;;;1.20;;
66421;SDS011;53228;51.380;0.098;2024-01-15T03:00:19;2.35;;;1.10;;
66421;SDS011;53228;51.380;0.098;2024-01-15T03:02:47;1.80;;;0.80;;
66421;SDS011;53228;51.380;0.098;2024-01-15T03:05:15;0.60;;;0.60;;
66421;SDS011;53228;51.380;0.098;2024-01-15T03:07:43;1.35;;;0.82;;
66421;SDS011;53228;51.380;0.098;2024-01-15T03:10:11;4.80;;;1.10;;
66421;SDS011;53228;51.380;0.098;2024-01-15T03:12:39;1.33;;;0.90;;
66421;SDS011;53228;51.380;0.098;2024-01-15T03:15:07;3.72;;;1.00;;
66421;SDS011;53228;51.380;0.098;2024-01-15T03:17:35;5.38;;;1.35;;
66421;SDS011;53228;51.380;0.098;2024-01-15T03:20:03;2.17;;;1.00;;
66421;SDS011;53228;51.380;0.098;2024-01-15T03:22:31;2.80;;;1.13;;
66421;SDS011;53228;51.380;0.098;2024-01-15T03:24:59;2.28;;;0.90;;
66421;SDS011;53228;51.380;0.098;2024-01-15T03:27:27;6.93;;;0.90;;
66421;SDS011;53228;51.380;0.098;2024-01-15T03:29:55;2.53;;;0.70;;
66421;SDS011;53228;51.380;0.098;2024-01-15T03:32:23;1.42;;;0.65;;
66421;SDS011;53228;51.380;0.098;2024-01-15T03:34:51;2.42;;;0.80;;
66421;SDS011;53228;51.380;0.098;2024-01-15T03:37:19;0.75;;;0.75;;
66421;SDS011;53228;51.380;0.098;2024-01-15T03:39:47;1.27;;;1.00;;
66421;SDS011;53228;51.380;0.098;2024-01-15T03:42:15;1.90;;;0.90;;
66421;SDS011;53228;51.380;0.098;2024-01-15T03:44:43;3.85;;;0.93;;
66421;SDS011;53228;51.380;0.098;2024-01-15T03:47:11;5.78;;;0.82;;
66421;SDS011;53228;51.380;0.098;2024-01-15T03:49:39;1.45;;;0.90;;
66421;SDS011;53228;51.380;0.098;2024-01-15T03:52:08;2.75;;;0.60;;
66421;SDS011;53228;51.380;0.098;2024-01-15T03:54:35;1.13;;;0.93;;
66421;SDS011;53228;51.380;0.098;2024-01-15T03:57:04;0.73;;;0.73;;
66421;SDS011;53228;51.380;0.098;2024-01-15T03:59:32;1.88;;;1.08;;
66421;SDS011;53228;51.380;0.098;2024-01-15T04:02:00;3.05;;;1.38;;
66421;SDS011;53228;51.380;0.098;2024-01-15T04:04:28;2.05;;;1.20;;
66421;SDS011;53228;51.380;0.098;2024-01-15T04:06:56;1.23;;;0.80;;
66421;SDS011;53228;51.380;0.098;2024-01-15T04:09:24;0.80;;;0.80;;
66421;SDS011;53228;51.380;0.098;2024-01-15T04:11:52;4.60;;;0.90;;
66421;SDS011;53228;51.380;0.098;2024-01-15T04:14:20;1.70;;;0.63;;
66421;SDS011;53228;51.380;0.098;2024-01-15T04:16:48;0.70;;;0.45;;
66421;SDS011;53228;51.380;0.098;2024-01-15T04:19:16;6.13;;;0.60;;
66421;SDS011;53228;51.380;0.098;2024-01-15T04:21:44;0.73;;;0.65;;
66421;SDS011;53228;51.380;0.098;2024-01-15T04:24:12;5.30;;;1.33;;
66421;SDS011;53228;51.380;0.098;2024-01-15T04:26:40;3.13;;;0.93;;
66421;SDS011;53228;51.380;0.098;2024-01-15T04:29:08;5.68;;;1.00;;
66421;SDS011;53228;51.380;0.098;2024-01-15T04:31:36;1.55;;;0.60;;
66421;SDS011;53228;51.380;0.098;2024-01-15T04:34:04;1.40;;;0.80;;
66421;SDS011;53228;51.380;0.098;2024-01-15T04:36:38;7.32;;;1.17;;
66421;SDS011;53228;51.380;0.098;2024-01-15T04:39:06;2.95;;;1.00;;
66421;SDS011;53228;51.380;0.098;2024-01-15T04:41:34;1.17;;;0.70;;
66421;SDS011;53228;51.380;0.098;2024-01-15T04:44:02;2.08;;;1.00;;
66421;SDS011;53228;51.380;0.098;2024-01-15T04:46:30;3.17;;;0.80;;
66421;SDS011;53228;51.380;0.098;2024-01-15T04:48:58;3.25;;;0.77;;
66421;SDS011;53228;51.380;0.098;2024-01-15T04:51:26;1.35;;;0.80;;
66421;SDS011;53228;51.380;0.098;2024-01-15T04:53:54;0.40;;;0.40;;
66421;SDS011;53228;51.380;0.098;2024-01-15T04:56:22;3.17;;;0.57;;
66421;SDS011;53228;51.380;0.098;2024-01-15T04:58:50;2.60;;;1.17;;
66421;SDS011;53228;51.380;0.098;2024-01-15T05:01:18;1.55;;;0.80;;
66421;SDS011;53228;51.380;0.098;2024-01-15T05:03:46;2.97;;;0.90;;
66421;SDS011;53228;51.380;0.098;2024-01-15T05:06:14;3.72;;;0.90;;
66421;SDS011;53228;51.380;0.098;2024-01-15T05:08:43;9.05;;;2.20;;
66421;SDS011;53228;51.380;0.098;2024-01-15T05:11:10;19.65;;;5.80;;
66421;SDS011;53228;51.380;0.098;2024-01-15T05:13:38;11.63;;;3.67;;
66421;SDS011;53228;51.380;0.098;2024-01-15T05:16:06;9.88;;;3.42;;
66421;SDS011;53228;51.380;0.098;2024-01-15T05:18:34;8.52;;;2.45;;
66421;SDS011;53228;51.380;0.098;2024-01-15T05:21:04;8.43;;;2.22;;
66421;SDS011;53228;51.380;0.098;2024-01-15T05:23:32;2.55;;;1.20;;
66421;SDS011;53228;51.380;0.098;2024-01-15T05:26:00;5.68;;;1.60;;
66421;SDS011;53228;51.380;0.098;2024-01-15T05:28:28;1.88;;;0.90;;
66421;SDS011;53228;51.380;0.098;2024-01-15T05:30:56;1.05;;;0.88;;
66421;SDS011;53228;51.380;0.098;2024-01-15T05:33:24;3.08;;;1.10;;
66421;SDS011;53228;51.380;0.098;2024-01-15T05:35:52;3.17;;;1.42;;
66421;SDS011;53228;51.380;0.098;2024-01-15T05:38:20;1.42;;;0.80;;
66421;SDS011;53228;51.380;0.098;2024-01-15T05:40:48;2.67;;;0.93;;
66421;SDS011;53228;51.380;0.098;2024-01-15T05:43:16;2.58;;;0.90;;
66421;SDS011;53228;51.380;0.098;2024-01-15T05:45:44;3.45;;;0.75;;
66421;SDS011;53228;51.380;0.098;2024-01-15T05:48:12;0.93;;;0.70;;
66421;SDS011;53228;51.380;0.098;2024-01-15T05:50:41;2.08;;;1.00;;
66421;SDS011;53228;51.380;0.098;2024-01-15T05:53:09;1.75;;;0.75;;
66421;SDS011;53228;51.380;0.098;2024-01-15T05:55:37;1.30;;;1.00;;
66421;SDS011;53228;51.380;0.098;2024-01-15T05:58:05;1.83;;;1.20;;
66421;SDS011;53228;51.380;0.098;2024-01-15T06:00:34;6.90;;;1.50;;
66421;SDS011;53228;51.380;0.098;2024-01-15T06:03:02;0.75;;;0.60;;
66421;SDS011;53228;51.380;0.098;2024-01-15T06:05:31;3.58;;;0.70;;
66421;SDS011;53228;51.380;0.098;2024-01-15T06:07:59;1.13;;;0.82;;
66421;SDS011;53228;51.380;0.098;2024-01-15T06:10:27;0.85;;;0.63;;
66421;SDS011;53228;51.380;0.098;2024-01-15T06:12:55;0.90;;;0.75;;
66421;SDS011;53228;51.380;0.098;2024-01-15T06:15:23;1.30;;;0.52;;
66421;SDS011;53228;51.380;0.098;2024-01-15T06:17:51;4.65;;;1.20;;
66421;SDS011;53228;51.380;0.098;2024-01-15T06:20:19;1.92;;;0.80;;
66421;SDS011;53228;51.380;0.098;2024-01-15T06:22:47;1.48;;;1.05;;
66421;SDS011;53228;51.380;0.098;2024-01-15T06:25:15;3.38;;;1.40;;
66421;SDS011;53228;51.380;0.098;2024-01-15T06:27:43;3.55;;;1.13;;
66421;SDS011;53228;51.380;0.098;2024-01-15T06:30:11;3.78;;;1.10;;
66421;SDS011;53228;51.380;0.098;2024-01-15T06:32:40;1.58;;;0.70;;
66421;SDS011;53228;51.380;0.098;2024-01-15T06:35:08;5.05;;;1.20;;
66421;SDS011;53228;51.380;0.098;2024-01-15T06:37:38;3.58;;;0.80;;
66421;SDS011;53228;51.380;0.098;2024-01-15T06:40:06;3.63;;;0.77;;
66421;SDS011;53228;51.380;0.098;2024-01-15T06:42:35;2.60;;;0.70;;
66421;SDS011;53228;51.380;0.098;2024-01-15T06:45:03;1.67;;;0.88;;
66421;SDS011;53228;51.380;0.098;2024-01-15T06:47:31;2.08;;;0.80;;
66421;SDS011;53228;51.380;0.098;2024-01-15T06:49:59;0.38;;;0.38;;
66421;SDS011;53228;51.380;0.098;2024-01-15T06:52:27;1.33;;;0.98;;
66421;SDS011;53228;51.380;0.098;2024-01-15T06:54:55;0.63;;;0.55;;
66421;SDS011;53228;51.380;0.098;2024-01-15T06:57:23;2.00;;;1.10;;
66421;SDS011;53228;51.380;0.098;2024-01-15T06:59:51;4.97;;;1.10;;
66421;SDS011;53228;51.380;0.098;2024-01-15T07:02:19;5.57;;;0.65;;
66421;SDS011;53228;51.380;0.098;2024-01-15T07:04:48;7.13;;;1.40;;
66421;SDS011;53228;51.380;0.098;2024-01-15T07:07:16;8.40;;;3.35;;
66421;SDS011;53228;51.380;0.098;2024-01-15T07:09:44;7.18;;;2.20;;
66421;SDS011;53228;51.380;0.098;2024-01-15T07:12:12;6.25;;;1.73;;
66421;SDS011;53228;51.380;0.098;2024-01-15T07:14:40;4.60;;;1.98;;
66421;SDS011;53228;51.380;0.098;2024-01-15T07:17:08;6.25;;;2.05;;
66421;SDS011;53228;51.380;0.098;2024-01-15T07:19:36;7.63;;;1.73;;
66421;SDS011;53228;51.380;0.098;2024-01-15T07:22:04;19.90;;;3.85;;
66421;SDS011;53228;51.380;0.098;2024-01-15T07:24:32;16.25;;;4.10;;
66421;SDS011;53228;51.380;0.098;2024-01-15T07:27:03;13.70;;;4.25;;
66421;SDS011;53228;51.380;0.098;2024-01-15T07:29:32;16.52;;;3.55;;
66421;SDS011;53228;51.380;0.098;2024-01-15T07:32:00;4.18;;;1.83;;
66421;SDS011;53228;51.380;0.098;2024-01-15T07:34:29;4.88;;;2.63;;
66421;SDS011;53228;51.380;0.098;2024-01-15T07:36:57;7.65;;;2.90;;
66421;SDS011;53228;51.380;0.098;2024-01-15T07:39:28;4.30;;;2.22;;
66421;SDS011;53228;51.380;0.098;2024-01-15T07:41:57;5.88;;;2.90;;
66421;SDS011;53228;51.380;0.098;2024-01-15T07:44:25;10.40;;;3.47;;
66421;SDS011;53228;51.380;0.098;2024-01-15T07:46:53;14.88;;;2.97;;
66421;SDS011;53228;51.380;0.098;2024-01-15T07:49:21;7.60;;;3.45;;
66421;SDS011;53228;51.380;0.098;2024-01-15T07:51:50;9.65;;;3.70;;
66421;SDS011;53228;51.380;0.098;2024-01-15T07:54:19;5.10;;;2.65;;
66421;SDS011;53228;51.380;0.098;2024-01-15T07:56:56;6.82;;;2.70;;
66421;SDS011;53228;51.380;0.098;2024-01-15T07:59:24;9.40;;;2.75;;
66421;SDS011;53228;51.380;0.098;2024-01-15T08:01:52;8.95;;;2.30;;
66421;SDS011;53228;51.380;0.098;2024-01-15T08:04:21;6.68;;;2.15;;
66421;SDS011;53228;51.380;0.098;2024-01-15T08:06:49;7.10;;;2.38;;
66421;SDS011;53228;51.380;0.098;2024-01-15T08:09:20;9.88;;;2.83;;
66421;SDS011;53228;51.380;0.098;2024-01-15T08:11:48;6.10;;;2.33;;
66421;SDS011;53228;51.380;0.098;2024-01-15T08:14:17;2.28;;;1.27;;
66421;SDS011;53228;51.380;0.098;2024-01-15T08:16:45;4.53;;;1.95;;
66421;SDS011;53228;51.380;0.098;2024-01-15T08:19:13;3.47;;;0.95;;
66421;SDS011;53228;51.380;0.098;2024-01-15T08:21:41;5.65;;;1.52;;
66421;SDS011;53228;51.380;0.098;2024-01-15T08:24:09;1.05;;;0.90;;
66421;SDS011;53228;51.380;0.098;2024-01-15T08:26:37;2.53;;;0.98;;
66421;SDS011;53228;51.380;0.098;2024-01-15T08:29:05;2.33;;;1.02;;
66421;SDS011;53228;51.380;0.098;2024-01-15T08:31:33;2.35;;;1.30;;
66421;SDS011;53228;51.380;0.098;2024-01-15T08:34:02;5.22;;;2.03;;
66421;SDS011;53228;51.380;0.098;2024-01-15T08:36:30;1.70;;;1.20;;
66421;SDS011;53228;51.380;0.098;2024-01-15T08:38:58;3.10;;;1.73;;
66421;SDS011;53228;51.380;0.098;2024-01-15T08:41:26;2.92;;;2.10;;
66421;SDS011;53228;51.380;0.098;2024-01-15T08:43:54;7.43;;;1.45;;
66421;SDS011;53228;51.380;0.098;2024-01-15T08:46:22;3.33;;;1.23;;
66421;SDS011;53228;51.380;0.098;2024-01-15T08:48:51;3.35;;;1.27;;
66421;SDS011;53228;51.380;0.098;2024-01-15T08:51:19;5.60;;;1.20;;
66421;SDS011;53228;51.380;0.098;2024-01-15T08:53:47;4.35;;;1.73;;
66421;SDS011;53228;51.380;0.098;2024-01-15T08:56:15;5.40;;;1.27;;
66421;SDS011;53228;51.380;0.098;2024-01-15T08:58:43;4.18;;;1.63;;
66421;SDS011;53228;51.380;0.098;2024-01-15T09:01:13;2.10;;;1.55;;
66421;SDS011;53228;51.380;0.098;2024-01-15T09:03:41;4.50;;;1.38;;
66421;SDS011;53228;51.380;0.098;2024-01-15T09:06:10;0.75;;;0.75;;
66421;SDS011;53228;51.380;0.098;2024-01-15T09:08:38;7.03;;;0.90;;
66421;SDS011;53228;51.380;0.098;2024-01-15T09:11:06;2.13;;;1.08;;
66421;SDS011;53228;51.380;0.098;2024-01-15T09:13:34;7.85;;;1.17;;
66421;SDS011;53228;51.380;0.098;2024-01-15T09:16:02;1.88;;;0.50;;
66421;SDS011;53228;51.380;0.098;2024-01-15T09:18:30;1.90;;;1.17;;
66421;SDS011;53228;51.380;0.098;2024-01-15T09:20:59;1.42;;;0.70;;
66421;SDS011;53228;51.380;0.098;2024-01-15T09:23:27;2.47;;;0.88;;
66421;SDS011;53228;51.380;0.098;2024-01-15T09:25:55;0.63;;;0.60;;
66421;SDS011;53228;51.380;0.098;2024-01-15T09:28:23;1.38;;;0.50;;
66421;SDS011;53228;51.380;0.098;2024-01-15T09:30:51;9.70;;;2.85;;
66421;SDS011;53228;51.380;0.098;2024-01-15T09:33:19;1.88;;;0.93;;
66421;SDS011;53228;51.380;0.098;2024-01-15T09:35:48;1.77;;;0.50;;
66421;SDS011;53228;51.380;0.098;2024-01-15T09:38:16;3.30;;;1.20;;
66421;SDS011;53228;51.380;0.098;2024-01-15T09:40:46;1.52;;;0.70;;
66421;SDS011;53228;51.380;0.098;2024-01-15T09:43:14;3.15;;;0.70;;
66421;SDS011;53228;51.380;0.098;2024-01-15T09:45:43;2.15;;;1.00;;
66421;SDS011;53228;51.380;0.098;2024-01-15T09:48:11;1.52;;;0.55;;
66421;SDS011;53228;51.380;0.098;2024-01-15T09:50:39;2.15;;;1.25;;
66421;SDS011;53228;51.380;0.098;2024-01-15T09:53:07;1.85;;;1.00;;
66421;SDS011;53228;51.380;0.098;2024-01-15T09:55:36;2.80;;;1.08;;
66421;SDS011;53228;51.380;0.098;2024-01-15T09:58:05;2.25;;;1.27;;
66421;SDS011;53228;51.380;0.098;2024-01-15T10:00:33;2.40;;;1.58;;
66421;SDS011;53228;51.380;0.098;2024-01-15T10:03:06;2.60;;;1.65;;
66421;SDS011;53228;51.380;0.098;2024-01-15T10:05:34;6.32;;;1.77;;
66421;SDS011;53228;51.380;0.098;2024-01-15T10:08:02;12.52;;;4.35;;
66421;SDS011;53228;51.380;0.098;2024-01-15T10:10:31;1.38;;;1.23;;
66421;SDS011;53228;51.380;0.098;2024-01-15T10:12:59;2.17;;;1.23;;
66421;SDS011;53228;51.380;0.098;2024-01-15T10:15:27;3.78;;;1.60;;
66421;SDS011;53228;51.380;0.098;2024-01-15T10:17:55;2.95;;;1.40;;
66421;SDS011;53228;51.380;0.098;2024-01-15T10:20:23;2.03;;;1.15;;
66421;SDS011;53228;51.380;0.098;2024-01-15T10:22:51;3.05;;;1.20;;
66421;SDS011;53228;51.380;0.098;2024-01-15T10:25:20;3.80;;;0.90;;
66421;SDS011;53228;51.380;0.098;2024-01-15T10:28:02;3.70;;;1.00;;
66421;SDS011;53228;51.380;0.098;2024-01-15T10:30:31;4.90;;;1.10;;
66421;SDS011;53228;51.380;0.098;2024-01-15T10:33:01;3.60;;;0.80;;
66421;SDS011;53228;51.380;0.098;2024-01-15T10:35:30;2.17;;;1.00;;
66421;SDS011;53228;51.380;0.098;2024-01-15T10:37:58;3.67;;;1.10;;
66421;SDS011;53228;51.380;0.098;2024-01-15T10:40:27;3.83;;;1.20;;
66421;SDS011;53228;51.380;0.098;2024-01-15T10:42:55;2.47;;;2.10;;
66421;SDS011;53228;51.380;0.098;2024-01-15T10:45:23;9.32;;;2.95;;
66421;SDS011;53228;51.380;0.098;2024-01-15T10:47:52;3.80;;;2.25;;
66421;SDS011;53228;51.380;0.098;2024-01-15T10:50:21;2.65;;;1.60;;
66421;SDS011;53228;51.380;0.098;2024-01-15T10:52:49;2.50;;;1.00;;
66421;SDS011;53228;51.380;0.098;2024-01-15T10:55:18;5.85;;;1.17;;
66421;SDS011;53228;51.380;0.098;2024-01-15T10:57:47;0.93;;;0.60;;
66421;SDS011;53228;51.380;0.098;2024-01-15T11:00:16;2.78;;;0.60;;
66421;SDS011;53228;51.380;0.098;2024-01-15T11:02:45;1.15;;;0.70;;
66421;SDS011;53228;51.380;0.098;2024-01-15T11:05:13;0.88;;;0.57;;
66421;SDS011;53228;51.380;0.098;2024-01-15T11:07:41;0.60;;;0.40;;
66421;SDS011;53228;51.380;0.098;2024-01-15T11:10:37;2.00;;;0.73;;
66421;SDS011;53228;51.380;0.098;2024-01-15T11:12:57;3.55;;;1.20;;
66421;SDS011;53228;51.380;0.098;2024-01-15T11:15:25;1.83;;;0.70;;
66421;SDS011;53228;51.380;0.098;2024-01-15T11:18:00;3.00;;;0.50;;
66421;SDS011;53228;51.380;0.098;2024-01-15T11:20:30;1.23;;;0.43;;
66421;SDS011;53228;51.380;0.098;2024-01-15T11:22:59;2.75;;;0.52;;
66421;SDS011;53228;51.380;0.098;2024-01-15T11:25:34;1.10;;;0.35;;
66421;SDS011;53228;51.380;0.098;2024-01-15T11:28:04;1.10;;;0.45;;
66421;SDS011;53228;51.380;0.098;2024-01-15T11:30:32;2.25;;;0.70;;
66421;SDS011;53228;51.380;0.098;2024-01-15T11:33:03;2.33;;;0.57;;
66421;SDS011;53228;51.380;0.098;2024-01-15T11:38:27;1.83;;;0.60;;
66421;SDS011;53228;51.380;0.098;2024-01-15T11:40:56;3.75;;;0.70;;
66421;SDS011;53228;51.380;0.098;2024-01-15T11:43:27;2.45;;;0.50;;
66421;SDS011;53228;51.380;0.098;2024-01-15T11:45:58;2.63;;;0.50;;
66421;SDS011;53228;51.380;0.098;2024-01-15T11:48:33;2.03;;;0.35;;
66421;SDS011;53228;51.380;0.098;2024-01-15T11:51:12;4.43;;;0.68;;
66421;SDS011;53228;51.380;0.098;2024-01-15T11:53:47;2.38;;;0.32;;
66421;SDS011;53228;51.380;0.098;2024-01-15T11:56:19;1.13;;;0.28;;
66421;SDS011;53228;51.380;0.098;2024-01-15T11:58:50;3.33;;;0.90;;
66421;SDS011;53228;51.380;0.098;2024-01-15T12:01:18;4.88;;;0.82;;
66421;SDS011;53228;51.380;0.098;2024-01-15T12:03:47;1.45;;;0.57;;
66421;SDS011;53228;51.380;0.098;2024-01-15T12:06:15;1.85;;;0.55;;
66421;SDS011;53228;51.380;0.098;2024-01-15T12:08:43;4.35;;;0.73;;
66421;SDS011;53228;51.380;0.098;2024-01-15T12:11:12;4.57;;;0.98;;
66421;SDS011;53228;51.380;0.098;2024-01-15T12:13:42;4.70;;;0.80;;
66421;SDS011;53228;51.380;0.098;2024-01-15T12:16:10;0.75;;;0.60;;
66421;SDS011;53228;51.380;0.098;2024-01-15T12:18:39;1.98;;;0.50;;
66421;SDS011;53228;51.380;0.098;2024-01-15T12:21:09;1.65;;;0.70;;
66421;SDS011;53228;51.380;0.098;2024-01-15T12:23:37;1.10;;;0.70;;
66421;SDS011;53228;51.380;0.098;2024-01-15T12:26:06;2.85;;;0.85;;
66421;SDS011;53228;51.380;0.098;2024-01-15T12:28:37;1.70;;;0.52;;
66421;SDS011;53228;51.380;0.098;2024-01-15T12:31:06;2.05;;;0.60;;
66421;SDS011;53228;51.380;0.098;2024-01-15T12:33:34;3.20;;;0.80;;
66421;SDS011;53228;51.380;0.098;2024-01-15T12:36:09;1.27;;;0.55;;
66421;SDS011;53228;51.380;0.098;2024-01-15T12:38:39;4.63;;;1.45;;
66421;SDS011;53228;51.380;0.098;2024-01-15T12:41:08;6.68;;;2.65;;
66421;SDS011;53228;51.380;0.098;2024-01-15T12:43:35;5.25;;;0.65;;
66421;SDS011;53228;51.380;0.098;2024-01-15T12:46:03;1.70;;;0.60;;
66421;SDS011;53228;51.380;0.098;2024-01-15T12:48:31;2.83;;;0.70;;
66421;SDS011;53228;51.380;0.098;2024-01-15T12:50:59;2.65;;;0.52;;
66421;SDS011;53228;51.380;0.098;2024-01-15T12:53:27;2.70;;;0.73;;
66421;SDS011;53228;51.380;0.098;2024-01-15T12:55:55;2.78;;;0.73;;
66421;SDS011;53228;51.380;0.098;2024-01-15T12:58:22;2.65;;;0.60;;
66421;SDS011;53228;51.380;0.098;2024-01-15T13:00:50;0.40;;;0.40;;
66421;SDS011;53228;51.380;0.098;2024-01-15T13:03:18;2.72;;;0.60;;
66421;SDS011;53228;51.380;0.098;2024-01-15T13:05:46;1.65;;;0.63;;
66421;SDS011;53228;51.380;0.098;2024-01-15T13:08:14;2.20;;;0.25;;
66421;SDS011;53228;51.380;0.098;2024-01-15T13:10:42;1.55;;;0.57;;
66421;SDS011;53228;51.380;0.098;2024-01-15T13:13:10;1.98;;;0.82;;
66421;SDS011;53228;51.380;0.098;2024-01-15T13:15:37;1.08;;;0.98;;
66421;SDS011;53228;51.380;0.098;2024-01-15T13:18:05;0.45;;;0.30;;
66421;SDS011;53228;51.380;0.098;2024-01-15T13:20:33;4.60;;;0.52;;
66421;SDS011;53228;51.380;0.098;2024-01-15T13:23:01;2.42;;;0.55;;
66421;SDS011;53228;51.380;0.098;2024-01-15T13:25:31;0.55;;;0.15;;
66421;SDS011;53228;51.380;0.098;2024-01-15T13:27:59;2.08;;;0.45;;
66421;SDS011;53228;51.380;0.098;2024-01-15T13:30:27;0.63;;;0.45;;
66421;SDS011;53228;51.380;0.098;2024-01-15T13:32:55;0.60;;;0.30;;
66421;SDS011;53228;51.380;0.098;2024-01-15T13:35:23;2.85;;;0.75;;
66421;SDS011;53228;51.380;0.098;2024-01-15T13:37:51;2.70;;;0.73;;
66421;SDS011;53228;51.380;0.098;2024-01-15T13:40:20;2.55;;;1.00;;
66421;SDS011;53228;51.380;0.098;2024-01-15T13:42:48;1.60;;;0.75;;
66421;SDS011;53228;51.380;0.098;2024-01-15T13:45:16;1.55;;;0.70;;
66421;SDS011;53228;51.380;0.098;2024-01-15T13:47:44;2.58;;;0.90;;
66421;SDS011;53228;51.380;0.098;2024-01-15T13:50:12;2.90;;;1.00;;
66421;SDS011;53228;51.380;0.098;2024-01-15T13:52:39;2.00;;;1.08;;
66421;SDS011;53228;51.380;0.098;2024-01-15T13:55:07;1.65;;;0.40;;
66421;SDS011;53228;51.380;0.098;2024-01-15T13:57:36;0.50;;;0.50;;
66421;SDS011;53228;51.380;0.098;2024-01-15T14:00:04;0.82;;;0.50;;
66421;SDS011;53228;51.380;0.098;2024-01-15T14:02:37;1.25;;;0.75;;
66421;SDS011;53228;51.380;0.098;2024-01-15T14:05:05;0.38;;;0.38;;
66421;SDS011;53228;51.380;0.098;2024-01-15T14:07:33;2.95;;;0.57;;
66421;SDS011;53228;51.380;0.098;2024-01-15T14:10:01;0.77;;;0.30;;
66421;SDS011;53228;51.380;0.098;2024-01-15T14:12:29;4.75;;;0.82;;
66421;SDS011;53228;51.380;0.098;2024-01-15T14:14:56;0.80;;;0.45;;
66421;SDS011;53228;51.380;0.098;2024-01-15T14:17:24;0.52;;;0.50;;
66421;SDS011;53228;51.380;0.098;2024-01-15T14:19:52;3.63;;;0.40;;
66421;SDS011;53228;51.380;0.098;2024-01-15T14:22:23;0.38;;;0.35;;
66421;SDS011;53228;51.380;0.098;2024-01-15T14:24:50;2.42;;;0.73;;
66421;SDS011;53228;51.380;0.098;2024-01-15T14:27:19;4.43;;;0.90;;
66421;SDS011;53228;51.380;0.098;2024-01-15T14:29:47;2.50;;;1.15;;
66421;SDS011;53228;51.380;0.098;2024-01-15T14:32:14;4.72;;;1.52;;
66421;SDS011;53228;51.380;0.098;2024-01-15T14:34:42;2.88;;;0.75;;
66421;SDS011;53228;51.380;0.098;2024-01-15T14:37:10;2.40;;;0.77;;
66421;SDS011;53228;51.380;0.098;2024-01-15T14:39:38;2.40;;;0.50;;
66421;SDS011;53228;51.380;0.098;2024-01-15T14:42:06;0.95;;;0.70;;
66421;SDS011;53228;51.380;0.098;2024-01-15T14:44:34;8.50;;;2.08;;
66421;SDS011;53228;51.380;0.098;2024-01-15T14:47:02;5.47;;;1.80;;
66421;SDS011;53228;51.380;0.098;2024-01-15T14:49:30;2.25;;;1.10;;
66421;SDS011;53228;51.380;0.098;2024-01-15T14:51:59;1.15;;;0.82;;
66421;SDS011;53228;51.380;0.098;2024-01-15T14:54:27;1.33;;;0.90;;
66421;SDS011;53228;51.380;0.098;2024-01-15T14:56:54;0.70;;;0.50;;
66421;SDS011;53228;51.380;0.098;2024-01-15T14:59:24;4.75;;;0.57;;